Al Taji, Iraq

1:17 PM AST on April 01, 2015 (GMT +0300)
Al - Andalus Square | | Change Station
CLOSE
Current Station
Personal Weather Station
Location: Baghdad, BAGHDāD
Elevation: 82 ft
Nearby Weather Stations

Elev 82 ft 33.32 °N, 44.43 °E | Updated 1 minute ago

Overcast
Overcast
70.9 °F
Feels Like 77 °F
N
4.2
Wind Variable Wind from WSW
Gusts 4.6 mph

Today
High -- | Low -- °F
--% Chance of Precip.
Yesterday
High -- | Low -- °F
Precip. -- in
5:51 AM 6:23 PM
Waxing Gibbous, 92% visible
Pressure 29.86 in
Visibility 6.2 miles
Clouds Few 10000 ft
Overcast 14000 ft
Heat Index 77 °F
Dew Point 45 °F
Humidity 40%
Rainfall 0.00 in
Snow Depth Not available.
UV 3 out of 12
Pollen Not available.
Air Quality Not available.
Flu Activity Not available.
METAR KQTZ 010955Z 29007G14KT 270V330 9999 FEW100 OVC140 21/06 A2986 RMK SLP111 WND/ALSTG/SLP ESTMD

More Conditions Fewer Conditions

Pressure 29.86 in
Visibility 6.2 miles
Clouds Few 10000 ft
Overcast 14000 ft
Heat Index 77 °F
Dew Point 45 °F
Humidity 40%
Rainfall 0.00 in
Snow Depth Not available.
UV 3 out of 12
Pollen Not available.
Air Quality Not available.
Flu Activity Not available.
METAR KQTZ 010955Z 29007G14KT 270V330 9999 FEW100 OVC140 21/06 A2986 RMK SLP111 WND/ALSTG/SLP ESTMD

More Conditions Fewer Conditions

10-Day Weather Forecast

Almanac

Astronomy

Apr. 01, 2015 Rise Set
Actual Time
Civil Twilight
Nautical Twilight
Astronomical Twilight
Moon
Length of Visible Light
Length of Day
Tomorrow will be .
, % of the Moon is Illuminated

Today's Extremes

Country Highs Country Lows

Community

WunderPhotos

Upload Photos

1,809,933 photos uploaded!

WunderBlogs® & News

Nearby

Air Quality

  Air Quality AQ Index Pollutant
Not available.

Snow Depth

Station Depth Elevation

Earthquake Activity

City Distance Mag. Time & Date
Minimum magnitude displayed is 2.5.

Coastal Water Temperatures

Place Temperature

Stations

Nearby Weather Stations

Station Location Temp. Windchill Dew Point Humidity Wind Precip. Elev Updated Type